KOSU/OSU METAR and TAF weather

Enter ICAO airport designator
Station Type Date Time Source
KOSU METAR 2018/12/13 22:09 UTC NOAA

KOSU 132209Z 00000KT 10SM SCT025 06/02 A3017 RMK AO2 T00610017


Station Type Date Time Source
KOSU Decoded METAR 2018/12/13 22:09 UTC NOAA

OHIO STATE UNIVERSITY AIRPORT , OH, United States (KOSU) 40-05N 083-05W 280M
Dec 13, 2018 - 05:09 PM EST / 2018.12.13 2209 UTC
Wind: Calm:0
Visibility: 10 mile(s):0
Sky conditions: partly cloudy
Temperature: 43.0 F (6.1 C)
Dew Point: 35.1 F (1.7 C)
Relative Humidity: 73%
Pressure (altimeter): 30.17 in. Hg (1021 hPa)
ob: KOSU 132209Z 00000KT 10SM SCT025 06/02 A3017 RMK AO2 T00610017
cycle: 22

Station Type Date Time Source
KOSU TAF UTC NOAA

Error!


Example: see airport list